createdAt,value
2022-08-07T00:00:12.135Z,101200.72
2022-08-07T00:02:39.998Z,101210.56
2022-08-07T00:04:35.590Z,101213.69
2022-08-07T00:06:51.048Z,101204.28
2022-08-07T00:08:54.971Z,101211.31
2022-08-07T00:10:57.394Z,101202.63
2022-08-07T00:13:09.536Z,101210.97
2022-08-07T00:15:37.812Z,101201.03
2022-08-07T00:17:47.710Z,101204.28
2022-08-07T00:20:01.040Z,101197.94
2022-08-07T00:22:05.015Z,101204.03
2022-08-07T00:24:08.744Z,101205.84
2022-08-07T00:26:13.340Z,101204.50
2022-08-07T00:28:21.985Z,101198.22
2022-08-07T00:30:27.486Z,101190.59
2022-08-07T00:32:30.147Z,101194.34
2022-08-07T00:34:43.914Z,101199.19
2022-08-07T00:36:46.587Z,101194.56
2022-08-07T00:38:48.914Z,101203.00
2022-08-07T00:40:53.483Z,101198.25
2022-08-07T00:42:55.097Z,101201.78
2022-08-07T00:44:56.676Z,101200.03
2022-08-07T00:46:58.261Z,101199.66
2022-08-07T00:49:02.054Z,101199.75
2022-08-07T00:51:04.238Z,101193.31
2022-08-07T00:53:05.877Z,101200.38
2022-08-07T00:55:10.920Z,101192.25
2022-08-07T00:57:14.396Z,101199.22
2022-08-07T00:59:16.807Z,101191.44
2022-08-07T01:01:22.513Z,101190.72
2022-08-07T01:03:55.927Z,101191.88
2022-08-07T01:05:51.621Z,101189.66
2022-08-07T01:07:55.425Z,101182.00
2022-08-07T01:10:06.321Z,101188.59
2022-08-07T01:12:29.846Z,101176.03
2022-08-07T01:14:32.425Z,101170.03
2022-08-07T01:16:38.744Z,101187.44
2022-08-07T01:18:45.093Z,101178.94
2022-08-07T01:20:59.597Z,101181.53
2022-08-07T01:23:12.350Z,101184.00
2022-08-07T01:25:55.880Z,101182.59
2022-08-07T01:27:37.984Z,101177.69
2022-08-07T01:29:52.197Z,101185.13
2022-08-07T01:31:54.327Z,101191.00
2022-08-07T01:33:57.586Z,101184.72
2022-08-07T01:36:06.345Z,101192.16
2022-08-07T01:38:12.192Z,101192.69
2022-08-07T01:40:16.267Z,101193.06
2022-08-07T01:42:39.982Z,101198.59
2022-08-07T01:44:40.831Z,101190.75
2022-08-07T01:46:43.124Z,101200.59
2022-08-07T01:48:46.497Z,101201.13
2022-08-07T01:50:55.626Z,101195.31
2022-08-07T01:52:58.925Z,101201.81
2022-08-07T01:55:02.858Z,101203.22
2022-08-07T01:57:08.596Z,101203.50
2022-08-07T01:59:18.611Z,101198.47
2022-08-07T02:02:02.053Z,101194.88
2022-08-07T02:03:52.489Z,101187.88
2022-08-07T02:05:59.928Z,101192.09
2022-08-07T02:08:06.215Z,101195.72
2022-08-07T02:10:14.326Z,101195.63
2022-08-07T02:12:18.095Z,101196.22
2022-08-07T02:14:40.473Z,101186.38
2022-08-07T02:16:42.920Z,101192.66
2022-08-07T02:18:46.972Z,101180.59
2022-08-07T02:20:52.059Z,101186.28
2022-08-07T02:23:02.103Z,101181.34
2022-08-07T02:25:07.184Z,101181.22
2022-08-07T02:27:21.252Z,101173.91
2022-08-07T02:29:24.916Z,101176.34
2022-08-07T02:31:29.559Z,101171.69
2022-08-07T02:33:41.949Z,101169.47
2022-08-07T02:36:30.671Z,101167.94
2022-08-07T02:38:19.128Z,101171.63
2022-08-07T02:40:35.171Z,101160.75
2022-08-07T02:42:39.456Z,101169.09
2022-08-07T02:44:46.503Z,101171.78
2022-08-07T02:46:52.903Z,101161.50
2022-08-07T02:48:55.014Z,101166.63
2022-08-07T02:50:59.389Z,101164.66
2022-08-07T02:53:06.534Z,101158.41
2022-08-07T02:55:28.341Z,101154.28
2022-08-07T02:57:44.084Z,101156.53
2022-08-07T02:59:54.817Z,101157.34
2022-08-07T03:01:57.877Z,101159.56
2022-08-07T03:04:07.576Z,101150.31
2022-08-07T03:06:16.512Z,101153.25
2022-08-07T03:08:20.227Z,101152.31
2022-08-07T03:10:32.427Z,101150.63
2022-08-07T03:12:34.570Z,101149.47
2022-08-07T03:14:38.954Z,101150.50
2022-08-07T03:16:41.779Z,101148.88
2022-08-07T03:18:44.082Z,101148.16
2022-08-07T03:20:47.103Z,101146.22
2022-08-07T03:22:50.539Z,101150.25
2022-08-07T03:24:53.167Z,101149.16
2022-08-07T03:26:59.779Z,101145.16
2022-08-07T03:29:03.210Z,101146.22
2022-08-07T03:31:07.232Z,101145.16
2022-08-07T03:33:13.567Z,101151.13
2022-08-07T03:35:26.240Z,101159.53
2022-08-07T03:37:29.408Z,101158.75
2022-08-07T03:39:59.922Z,101150.34
2022-08-07T03:41:58.345Z,101153.09
2022-08-07T03:44:02.989Z,101149.63
2022-08-07T03:46:10.371Z,101155.72
2022-08-07T03:48:22.816Z,101154.84
2022-08-07T03:50:25.387Z,101156.16
2022-08-07T03:52:31.864Z,101157.03
2022-08-07T03:54:54.216Z,101161.25
2022-08-07T03:57:03.739Z,101159.19
2022-08-07T03:59:13.467Z,101169.47
2022-08-07T04:01:18.145Z,101163.09
2022-08-07T04:03:20.719Z,101165.94
2022-08-07T04:05:23.987Z,101165.03
2022-08-07T04:07:36.308Z,101160.22
2022-08-07T04:09:50.220Z,101171.69
2022-08-07T04:12:24.482Z,101163.78
2022-08-07T04:14:37.430Z,101167.06
2022-08-07T04:16:38.406Z,101169.97
2022-08-07T04:18:59.316Z,101174.41
2022-08-07T04:21:03.847Z,101173.25
2022-08-07T04:23:09.442Z,101168.63
2022-08-07T04:25:22.609Z,101165.97
2022-08-07T04:27:26.360Z,101164.56
2022-08-07T04:29:40.311Z,101171.22
2022-08-07T04:32:02.913Z,101167.25
2022-08-07T04:34:16.778Z,101168.75
2022-08-07T04:36:26.066Z,101172.97
2022-08-07T04:38:28.211Z,101173.06
2022-08-07T04:40:32.263Z,101177.88
2022-08-07T04:42:34.202Z,101185.84
2022-08-07T04:44:37.502Z,101179.63
2022-08-07T04:47:08.492Z,101184.16
2022-08-07T04:49:18.012Z,101192.47
2022-08-07T04:51:27.306Z,101191.34
2022-08-07T04:54:01.174Z,101191.34
2022-08-07T04:58:11.902Z,101193.63
2022-08-07T04:59:17.095Z,101192.47
2022-08-07T05:01:13.375Z,101194.34
2022-08-07T05:03:59.552Z,101197.13
2022-08-07T05:05:51.694Z,101206.19
2022-08-07T05:08:01.125Z,101202.72
2022-08-07T05:10:06.081Z,101204.72
2022-08-07T05:12:10.408Z,101205.97
2022-08-07T05:14:52.379Z,101210.06
2022-08-07T05:16:44.153Z,101198.06
2022-08-07T05:18:53.042Z,101204.78
2022-08-07T05:21:00.390Z,101202.69
2022-08-07T05:23:15.298Z,101205.81
2022-08-07T05:25:26.335Z,101212.78
2022-08-07T05:28:02.041Z,101212.22
2022-08-07T05:30:02.379Z,101216.13
2022-08-07T05:32:05.033Z,101221.59
2022-08-07T05:34:13.224Z,101227.72
2022-08-07T05:36:22.514Z,101222.56
2022-08-07T05:38:59.510Z,101230.69
2022-08-07T05:40:55.431Z,101225.03
2022-08-07T05:43:00.990Z,101230.97
2022-08-07T05:45:25.996Z,101233.84
2022-08-07T05:47:38.146Z,101230.91
2022-08-07T05:49:51.720Z,101235.78
2022-08-07T05:51:53.390Z,101240.66
2022-08-07T05:54:08.630Z,101230.22
2022-08-07T05:56:17.918Z,101236.22
2022-08-07T05:58:35.959Z,101239.50
2022-08-07T06:00:39.897Z,101240.97
2022-08-07T06:02:45.102Z,101234.19
2022-08-07T06:04:55.137Z,101234.75
2022-08-07T06:07:03.727Z,101239.34
2022-08-07T06:09:06.926Z,101238.72
2022-08-07T06:11:09.342Z,101236.72
2022-08-07T06:13:13.713Z,101234.22
2022-08-07T06:15:20.117Z,101241.84
2022-08-07T06:17:23.044Z,101239.94
2022-08-07T06:19:52.026Z,101226.72
2022-08-07T06:22:16.585Z,101226.31
2022-08-07T06:24:38.409Z,101228.63
2022-08-07T06:26:42.072Z,101228.94
2022-08-07T06:28:48.885Z,101231.47
2022-08-07T06:30:53.032Z,101231.63
2022-08-07T06:32:54.703Z,101235.38
2022-08-07T06:34:56.317Z,101224.97
2022-08-07T06:36:59.280Z,101231.84
2022-08-07T06:40:15.684Z,101231.91
2022-08-07T06:42:02.015Z,101232.09
2022-08-07T06:44:01.307Z,101224.78
2022-08-07T06:46:12.188Z,101230.81
2022-08-07T06:48:14.381Z,101226.56
2022-08-07T06:50:19.061Z,101231.41
2022-08-07T06:52:31.473Z,101224.44
2022-08-07T06:55:32.248Z,101220.94
2022-08-07T06:57:00.753Z,101225.72
2022-08-07T07:00:12.996Z,101226.94
2022-08-07T07:01:24.356Z,101223.44
2022-08-07T07:03:48.741Z,101219.19
2022-08-07T07:06:05.080Z,101218.75
2022-08-07T07:08:12.473Z,101220.03
2022-08-07T07:10:28.177Z,101224.47
2022-08-07T07:12:41.705Z,101227.28
2022-08-07T07:14:55.579Z,101228.44
2022-08-07T07:17:02.923Z,101228.56
2022-08-07T07:19:34.042Z,101224.63
2022-08-07T07:22:05.308Z,101222.38
2022-08-07T07:24:08.528Z,101224.75
2022-08-07T07:26:32.658Z,101217.66
2022-08-07T07:29:40.354Z,101219.34
2022-08-07T07:31:08.435Z,101217.44
2022-08-07T07:33:12.416Z,101217.84
2022-08-07T07:35:16.798Z,101213.97
2022-08-07T07:37:44.192Z,101225.03
2022-08-07T07:39:52.565Z,101221.09
2022-08-07T07:42:13.207Z,101218.25
2022-08-07T07:44:21.381Z,101216.00
2022-08-07T07:46:38.000Z,101218.19
2022-08-07T07:48:59.867Z,101218.38
2022-08-07T07:51:12.322Z,101224.97
2022-08-07T07:53:25.801Z,101216.72
2022-08-07T07:55:37.704Z,101214.72
2022-08-07T07:57:53.413Z,101215.94
2022-08-07T07:59:56.859Z,101209.47
2022-08-07T08:02:10.640Z,101210.09
2022-08-07T08:04:13.261Z,101212.88
2022-08-07T08:06:17.899Z,101212.22
2022-08-07T08:08:35.374Z,101203.88
2022-08-07T08:10:40.367Z,101210.81
2022-08-07T08:12:52.413Z,101206.97
2022-08-07T08:15:00.832Z,101200.03
2022-08-07T08:17:55.534Z,101204.50
2022-08-07T08:20:19.556Z,101211.84
2022-08-07T08:21:55.983Z,101204.31
2022-08-07T08:24:07.347Z,101200.44
2022-08-07T08:26:31.050Z,101197.84
2022-08-07T08:28:44.806Z,101199.38
2022-08-07T08:30:55.811Z,101193.78
2022-08-07T08:33:01.830Z,101200.44
2022-08-07T08:35:07.997Z,101197.41
2022-08-07T08:37:59.585Z,101197.50
2022-08-07T08:39:39.624Z,101200.75
2022-08-07T08:42:03.599Z,101191.16
2022-08-07T08:44:14.018Z,101183.31
2022-08-07T08:46:22.079Z,101188.84
2022-08-07T08:48:36.379Z,101187.19
2022-08-07T08:50:45.029Z,101184.69
2022-08-07T08:52:53.884Z,101181.91
2022-08-07T08:55:04.683Z,101180.78
2022-08-07T08:57:21.806Z,101176.56
2022-08-07T08:59:28.205Z,101179.25
2022-08-07T09:01:44.161Z,101180.50
2022-08-07T09:03:58.516Z,101173.72
2022-08-07T09:06:06.197Z,101172.28
2022-08-07T09:08:28.185Z,101166.03
2022-08-07T09:10:37.899Z,101166.59
2022-08-07T09:13:09.436Z,101171.06
2022-08-07T09:16:22.697Z,101164.88
2022-08-07T09:17:59.226Z,101162.06
2022-08-07T09:20:34.758Z,101157.03
2022-08-07T09:24:33.019Z,101158.63
2022-08-07T09:25:21.538Z,101155.91
2022-08-07T09:27:31.300Z,101147.53
2022-08-07T09:30:08.533Z,101145.50
2022-08-07T09:32:21.436Z,101150.69
2022-08-07T09:34:29.004Z,101147.19
2022-08-07T09:36:37.158Z,101155.44
2022-08-07T09:38:50.237Z,101149.53
2022-08-07T09:41:06.700Z,101144.44
2022-08-07T09:43:20.184Z,101146.75
2022-08-07T09:47:25.812Z,101142.41
2022-08-07T09:48:45.352Z,101132.16
2022-08-07T09:51:14.601Z,101118.53
2022-08-07T09:53:40.598Z,101124.19
2022-08-07T09:56:05.141Z,101113.84
2022-08-07T09:58:37.503Z,101116.19
2022-08-07T10:00:57.823Z,101108.88
2022-08-07T10:04:05.462Z,101104.28
2022-08-07T10:06:03.454Z,101098.09
2022-08-07T10:08:26.802Z,101093.09
2022-08-07T10:13:54.654Z,101094.91
2022-08-07T10:16:09.140Z,101089.75
2022-08-07T10:18:27.954Z,101081.59
2022-08-07T10:20:38.971Z,101080.56
2022-08-07T10:22:57.534Z,101077.91
2022-08-07T10:25:22.656Z,101079.63
2022-08-07T10:27:53.394Z,101076.91
2022-08-07T10:30:06.443Z,101069.78
2022-08-07T10:32:36.855Z,101071.03
2022-08-07T10:35:09.154Z,101074.59
2022-08-07T10:37:48.690Z,101069.53
2022-08-07T10:40:09.054Z,101068.41
2022-08-07T10:42:31.191Z,101065.66
2022-08-07T10:44:45.601Z,101071.16
2022-08-07T10:46:54.282Z,101055.00
2022-08-07T10:49:06.052Z,101058.50
2022-08-07T10:51:16.856Z,101058.44
2022-08-07T10:53:44.037Z,101067.19
2022-08-07T10:55:53.499Z,101056.88
2022-08-07T10:58:05.451Z,101054.59
2022-08-07T11:00:09.218Z,101049.88
2022-08-07T11:02:33.513Z,101049.09
2022-08-07T11:04:52.074Z,101042.41
2022-08-07T11:07:02.945Z,101035.38
2022-08-07T11:09:11.482Z,101026.13
2022-08-07T11:11:20.971Z,101030.56
2022-08-07T11:14:42.534Z,101040.22
2022-08-07T11:15:55.482Z,101034.78
2022-08-07T11:18:03.627Z,101030.06
2022-08-07T11:20:13.782Z,101028.53
2022-08-07T11:22:33.264Z,101026.88
2022-08-07T11:24:53.308Z,101040.81
2022-08-07T11:27:01.944Z,101027.78
2022-08-07T11:29:22.352Z,101025.81
2022-08-07T11:31:35.468Z,101028.25
2022-08-07T11:33:53.769Z,101025.09
2022-08-07T11:36:13.469Z,101016.06
2022-08-07T11:38:21.301Z,101019.63
2022-08-07T11:40:35.902Z,101014.75
2022-08-07T11:42:54.161Z,101013.28
2022-08-07T11:45:09.631Z,101014.50
2022-08-07T11:47:39.191Z,101016.03
2022-08-07T11:50:30.986Z,101010.91
2022-08-07T11:52:49.703Z,101002.13
2022-08-07T11:55:13.188Z,101001.75
2022-08-07T11:57:59.969Z,101001.28
2022-08-07T12:00:10.213Z,100999.38
2022-08-07T12:02:30.702Z,100997.34
2022-08-07T12:04:55.387Z,101002.75
2022-08-07T12:07:07.956Z,101002.00
2022-08-07T12:09:23.787Z,101002.91
2022-08-07T12:11:32.211Z,100992.81
2022-08-07T12:13:45.011Z,100990.19
2022-08-07T12:16:06.795Z,100991.09
2022-08-07T12:18:16.105Z,100989.13
2022-08-07T12:20:32.336Z,100978.84
2022-08-07T12:22:56.392Z,100986.38
2022-08-07T12:25:07.808Z,100978.06
2022-08-07T12:27:16.476Z,100982.78
2022-08-07T12:29:37.628Z,100976.31
2022-08-07T12:32:01.458Z,100975.88
2022-08-07T12:34:11.174Z,100967.66
2022-08-07T12:36:15.304Z,100961.31
2022-08-07T12:38:29.472Z,100961.84
2022-08-07T12:40:47.962Z,100961.91
2022-08-07T12:42:52.687Z,100965.38
2022-08-07T12:45:04.671Z,100954.81
2022-08-07T12:47:21.757Z,100958.50
2022-08-07T12:49:48.939Z,100957.47
2022-08-07T12:52:13.842Z,100956.25
2022-08-07T12:54:37.998Z,100956.38
2022-08-07T12:56:51.322Z,100948.28
2022-08-07T12:58:59.577Z,100947.16
2022-08-07T13:01:08.700Z,100943.25
2022-08-07T13:03:53.615Z,100943.78
2022-08-07T13:06:03.818Z,100942.97
2022-08-07T13:08:43.572Z,100942.78
2022-08-07T13:10:59.819Z,100936.31
2022-08-07T13:13:48.133Z,100934.53
2022-08-07T13:15:50.931Z,100930.94
2022-08-07T13:18:03.320Z,100935.81
2022-08-07T13:20:12.128Z,100928.41
2022-08-07T13:22:27.703Z,100923.13
2022-08-07T13:24:43.941Z,100924.50
2022-08-07T13:27:03.628Z,100915.47
2022-08-07T13:29:14.038Z,100915.66
2022-08-07T13:31:22.698Z,100910.94
2022-08-07T13:34:30.715Z,100913.75
2022-08-07T13:36:00.932Z,100910.38
2022-08-07T13:38:13.853Z,100915.34
2022-08-07T13:40:35.675Z,100907.47
2022-08-07T13:42:45.957Z,100908.19
2022-08-07T13:45:20.952Z,100910.88
2022-08-07T13:47:21.732Z,100909.53
2022-08-07T13:50:33.009Z,100903.84
2022-08-07T13:52:22.999Z,100915.94
2022-08-07T13:54:22.494Z,100905.84
2022-08-07T13:56:35.297Z,100891.16
2022-08-07T13:58:56.339Z,100891.03
2022-08-07T14:01:09.018Z,100897.66
2022-08-07T14:03:13.803Z,100894.41
2022-08-07T14:05:22.084Z,100900.47
2022-08-07T14:07:28.652Z,100894.28
2022-08-07T14:10:02.693Z,100895.50
2022-08-07T14:12:00.398Z,100886.06
2022-08-07T14:14:04.896Z,100885.75
2022-08-07T14:16:15.274Z,100876.41
2022-08-07T14:18:28.675Z,100877.38
2022-08-07T14:20:42.160Z,100873.94
2022-08-07T14:22:48.735Z,100867.84
2022-08-07T14:24:54.168Z,100867.53
2022-08-07T14:26:59.201Z,100867.81
2022-08-07T14:30:05.757Z,100871.09
2022-08-07T14:31:42.691Z,100872.06
2022-08-07T14:33:52.083Z,100870.31
2022-08-07T14:35:56.201Z,100866.78
2022-08-07T14:38:06.075Z,100863.88
2022-08-07T14:40:27.088Z,100866.88
2022-08-07T14:42:33.658Z,100864.34
2022-08-07T14:44:37.071Z,100865.88
2022-08-07T14:46:52.014Z,100860.31
2022-08-07T14:49:56.098Z,100856.84
2022-08-07T14:52:04.724Z,100861.41
2022-08-07T14:54:09.832Z,100862.28
2022-08-07T14:56:15.572Z,100873.25
2022-08-07T14:58:35.363Z,100868.09
2022-08-07T15:00:39.444Z,100865.31
2022-08-07T15:02:44.680Z,100858.47
2022-08-07T15:05:01.636Z,100858.19
2022-08-07T15:07:47.438Z,100861.75
2022-08-07T15:09:59.136Z,100855.41
2022-08-07T15:12:10.064Z,100857.44
2022-08-07T15:14:30.603Z,100839.19
2022-08-07T15:16:38.734Z,100843.13
2022-08-07T15:19:01.332Z,100848.25
2022-08-07T15:21:08.358Z,100839.06
2022-08-07T15:25:56.238Z,100846.28
2022-08-07T15:28:33.040Z,100837.13
2022-08-07T15:30:24.929Z,100832.75
2022-08-07T15:32:39.841Z,100839.91
2022-08-07T15:34:56.984Z,100829.59
2022-08-07T15:37:06.763Z,100839.19
2022-08-07T15:39:10.774Z,100840.41
2022-08-07T15:41:24.074Z,100831.97
2022-08-07T15:43:55.614Z,100830.81
2022-08-07T15:46:32.348Z,100830.72
2022-08-07T15:49:03.853Z,100833.47
2022-08-07T15:51:10.064Z,100825.88
2022-08-07T15:53:52.216Z,100823.88
2022-08-07T15:56:02.776Z,100831.09
2022-08-07T15:58:11.681Z,100819.22
2022-08-07T16:00:33.628Z,100821.56
2022-08-07T16:02:40.408Z,100819.94
2022-08-07T16:04:44.035Z,100819.22
2022-08-07T16:06:52.457Z,100812.47
2022-08-07T16:09:01.172Z,100817.25
2022-08-07T16:11:27.221Z,100808.88
2022-08-07T16:14:03.089Z,100807.25
2022-08-07T16:16:47.768Z,100810.50
2022-08-07T16:18:50.885Z,100813.28
2022-08-07T16:21:56.910Z,100810.16
2022-08-07T16:23:58.322Z,100807.00
2022-08-07T16:26:08.154Z,100806.19
2022-08-07T16:30:09.076Z,100805.03
2022-08-07T16:30:53.747Z,100802.25
2022-08-07T16:34:02.959Z,100793.53
2022-08-07T16:35:59.413Z,100803.47
2022-08-07T16:38:15.796Z,100802.25
2022-08-07T16:41:01.501Z,100799.53
2022-08-07T16:43:18.646Z,100799.22
2022-08-07T16:46:10.994Z,100809.13
2022-08-07T16:50:20.671Z,100803.16
2022-08-07T16:52:02.007Z,100803.22
2022-08-07T16:54:32.913Z,100806.03
2022-08-07T16:56:49.802Z,100807.59
2022-08-07T16:59:14.329Z,100805.97
2022-08-07T17:01:41.230Z,100812.69
2022-08-07T17:03:59.509Z,100811.16
2022-08-07T17:06:31.360Z,100805.97
2022-08-07T17:09:04.249Z,100806.75
2022-08-07T17:11:07.192Z,100798.81
2022-08-07T17:14:19.167Z,100810.75
2022-08-07T17:16:12.148Z,100801.63
2022-08-07T17:18:17.868Z,100806.78
2022-08-07T17:20:31.012Z,100807.19
2022-08-07T17:22:38.114Z,100807.56
2022-08-07T17:24:55.368Z,100804.00
2022-08-07T17:27:02.808Z,100802.41
2022-08-07T17:30:12.374Z,100814.31
2022-08-07T17:32:03.169Z,100808.75
2022-08-07T17:34:33.121Z,100801.63
2022-08-07T17:36:57.634Z,100813.13
2022-08-07T17:39:10.546Z,100814.28
2022-08-07T17:42:04.182Z,100815.88
2022-08-07T17:44:02.822Z,100817.09
2022-08-07T17:46:15.324Z,100817.91
2022-08-07T17:48:31.032Z,100817.09
2022-08-07T17:50:47.101Z,100816.31
2022-08-07T17:52:55.228Z,100821.84
2022-08-07T17:55:05.486Z,100823.06
2022-08-07T17:57:19.567Z,100817.91
2022-08-07T17:59:35.976Z,100821.47
2022-08-07T18:01:48.412Z,100824.63
2022-08-07T18:04:16.403Z,100825.84
2022-08-07T18:06:38.516Z,100831.00
2022-08-07T18:09:01.052Z,100828.25
2022-08-07T18:12:08.249Z,100836.16
2022-08-07T18:13:44.788Z,100828.63
2022-08-07T18:16:03.611Z,100840.50
2022-08-07T18:18:46.500Z,100837.72
2022-08-07T18:21:08.595Z,100840.50
2022-08-07T18:23:05.946Z,100840.94
2022-08-07T18:25:40.084Z,100842.13
2022-08-07T18:28:06.334Z,100847.25
2022-08-07T18:30:31.631Z,100849.63
2022-08-07T18:32:46.354Z,100847.66
2022-08-07T18:35:09.002Z,100851.22
2022-08-07T18:38:57.225Z,100852.38
2022-08-07T18:40:07.535Z,100847.66
2022-08-07T18:42:20.803Z,100852.03
2022-08-07T18:44:45.950Z,100851.59
2022-08-07T18:47:05.608Z,100865.47
2022-08-07T18:50:32.921Z,100863.50
2022-08-07T18:52:33.635Z,100870.25
2022-08-07T18:54:31.236Z,100864.69
2022-08-07T18:56:58.315Z,100864.69
2022-08-07T18:59:47.431Z,100872.63
2022-08-07T19:02:17.943Z,100870.25
2022-08-07T19:04:13.233Z,100875.38
2022-08-07T19:06:33.868Z,100882.94
2022-08-07T19:08:49.527Z,100873.03
2022-08-07T19:11:36.033Z,100887.25
2022-08-07T19:13:38.061Z,100895.59
2022-08-07T19:16:05.270Z,100894.81
2022-08-07T19:18:14.516Z,100896.34
2022-08-07T19:20:29.833Z,100904.25
2022-08-07T19:22:40.298Z,100910.59
2022-08-07T19:24:47.985Z,100916.94
2022-08-07T19:27:16.659Z,100916.94
2022-08-07T19:31:05.119Z,100920.06
2022-08-07T19:32:10.832Z,100930.75
2022-08-07T19:34:11.878Z,100930.34
2022-08-07T19:36:16.956Z,100941.00
2022-08-07T19:38:34.075Z,100942.19
2022-08-07T19:40:50.675Z,100939.84
2022-08-07T19:42:55.402Z,100941.41
2022-08-07T19:45:00.536Z,100946.16
2022-08-07T19:47:14.470Z,100946.13
2022-08-07T19:49:18.972Z,100951.31
2022-08-07T19:51:52.736Z,100949.31
2022-08-07T19:54:29.946Z,100954.47
2022-08-07T19:57:52.182Z,100945.34
2022-08-07T19:58:54.168Z,100949.66
2022-08-07T20:00:57.770Z,100946.09
2022-08-07T20:03:01.769Z,100947.28
2022-08-07T20:05:07.905Z,100949.25
2022-08-07T20:07:11.737Z,100956.31
2022-08-07T20:10:34.082Z,100962.63
2022-08-07T20:12:22.912Z,100965.38
2022-08-07T20:14:03.148Z,100964.16
2022-08-07T20:16:32.115Z,100962.53
2022-08-07T20:18:34.572Z,100959.78
2022-08-07T20:20:38.140Z,100957.81
2022-08-07T20:22:45.223Z,100959.34
2022-08-07T20:24:52.536Z,100968.84
2022-08-07T20:26:58.593Z,100965.66
2022-08-07T20:29:10.656Z,100963.28
2022-08-07T20:31:27.324Z,100968.44
2022-08-07T20:33:38.273Z,100969.22
2022-08-07T20:35:54.358Z,100967.22
2022-08-07T20:38:06.571Z,100963.25
2022-08-07T20:40:31.195Z,100966.00
2022-08-07T20:42:37.272Z,100965.97
2022-08-07T20:44:45.473Z,100960.03
2022-08-07T20:47:05.886Z,100961.56
2022-08-07T20:49:59.425Z,100955.63
2022-08-07T20:51:35.945Z,100955.19
2022-08-07T20:54:04.101Z,100953.94
2022-08-07T20:56:02.526Z,100951.94
2022-08-07T20:58:12.018Z,100954.28
2022-08-07T21:00:22.374Z,100947.94
2022-08-07T21:02:28.048Z,100957.44
2022-08-07T21:04:34.109Z,100947.56
2022-08-07T21:06:37.988Z,100940.44
2022-08-07T21:08:46.695Z,100938.03
2022-08-07T21:10:50.615Z,100942.75
2022-08-07T21:12:56.660Z,100935.97
2022-08-07T21:15:02.940Z,100935.47
2022-08-07T21:18:17.525Z,100923.97
2022-08-07T21:19:51.856Z,100940.22
2022-08-07T21:21:57.732Z,100935.09
2022-08-07T21:24:07.060Z,100936.28
2022-08-07T21:26:30.857Z,100935.09
2022-08-07T21:28:48.497Z,100932.78
2022-08-07T21:31:02.417Z,100930.00
2022-08-07T21:33:16.497Z,100933.50
2022-08-07T21:35:34.622Z,100936.63
2022-08-07T21:37:58.020Z,100933.81
2022-08-07T21:40:08.606Z,100935.03
2022-08-07T21:42:42.518Z,100935.81
2022-08-07T21:44:53.165Z,100932.53
2022-08-07T21:46:59.960Z,100930.91
2022-08-07T21:49:14.476Z,100925.81
2022-08-07T21:51:32.037Z,100928.56
2022-08-07T21:53:46.535Z,100925.66
2022-08-07T21:56:03.141Z,100918.56
2022-08-07T21:58:07.862Z,100924.44
2022-08-07T22:00:23.109Z,100929.16
2022-08-07T22:02:34.408Z,100924.47
2022-08-07T22:04:42.416Z,100928.09
2022-08-07T22:07:03.263Z,100926.06
2022-08-07T22:09:08.180Z,100924.41
2022-08-07T22:11:14.201Z,100927.91
2022-08-07T22:13:16.535Z,100928.66
2022-08-07T22:16:39.713Z,100927.91
2022-08-07T22:17:53.443Z,100932.22
2022-08-07T22:20:10.836Z,100931.47
2022-08-07T22:22:34.267Z,100933.38
2022-08-07T22:24:55.165Z,100935.44
2022-08-07T22:27:01.869Z,100941.75
2022-08-07T22:29:13.785Z,100936.66
2022-08-07T22:31:45.286Z,100945.41
2022-08-07T22:33:56.205Z,100937.78
2022-08-07T22:36:04.500Z,100949.50
2022-08-07T22:38:13.916Z,100941.81
2022-08-07T22:40:28.376Z,100946.16
2022-08-07T22:42:35.312Z,100947.75
2022-08-07T22:44:57.896Z,100944.59
2022-08-07T22:47:28.351Z,100949.25
2022-08-07T22:49:54.090Z,100947.66
2022-08-07T22:52:36.920Z,100945.06
2022-08-07T22:55:17.460Z,100950.16
2022-08-07T22:57:49.949Z,100959.84
2022-08-07T22:59:58.047Z,100954.28
2022-08-07T23:02:07.554Z,100957.00
2022-08-07T23:04:30.833Z,100961.97
2022-08-07T23:06:58.987Z,100958.69
2022-08-07T23:10:01.174Z,100954.38
2022-08-07T23:11:51.342Z,100953.97
2022-08-07T23:14:24.080Z,100950.09
2022-08-07T23:16:46.470Z,100950.44
2022-08-07T23:19:02.516Z,100950.78
2022-08-07T23:21:29.858Z,100954.81
2022-08-07T23:24:06.491Z,100953.31
2022-08-07T23:26:23.336Z,100956.09
2022-08-07T23:28:54.447Z,100957.31
2022-08-07T23:31:18.781Z,100949.44
2022-08-07T23:34:34.557Z,100950.69
2022-08-07T23:36:28.964Z,100946.06
2022-08-07T23:38:54.721Z,100944.91
2022-08-07T23:41:08.942Z,100951.13
2022-08-07T23:43:48.581Z,100945.09
2022-08-07T23:46:10.824Z,100948.50
2022-08-07T23:48:28.930Z,100955.50
2022-08-07T23:50:45.162Z,100943.66
2022-08-07T23:53:06.148Z,100949.66
2022-08-07T23:55:52.141Z,100942.94
2022-08-07T23:57:44.018Z,100936.97
